map of IXA home
Great Circle Mapper logo
IXA - Airport
Location
City:  Agartala, India
ICAO / IATA:VEAT / IXA

Details
Type:Airport (Aerodrome, Airfield)
Latitude:23°53'13"N (23.886978)
Longitude:91°14'26"E (91.240450)
Datum:WGS 1984
Elevation:46 ft (14 m)
Runways:1
Longest:7500 × 148 ft (2286 × 45 m), paved

Time
Time Zone:UTC+5:30
Local Time:

Weather
METAR:VEAT 200630Z 18004KT 4000 BR SCT018 FEW030CB BKN100 30/27 Q1006 TEMPO 3000 -TSRA RMK

Related Locations
Nearby:
Farthest:SCFX: 11878 mi / 19116 km
Isla San Félix, Desventuradas Islands, VS, CL

Find:

   beyond  
but within

Other Information
Maps:
NOTAMs:
Links:
Sources:

  
flag of India   

Sectional Chart

Flight Planning
at skyvector.com

Satellite Image

Google Maps Satellite View

 

Copyright © 2004-2014 Karl L. Swartz. All rights reserved.
The Great Circle Mapper name and logo are trademarks of the Great Circle Mapper.
All other trademarks mentioned herein belong to their respective owners.
Please see credits for attibutions and further copyright information.

  Follow gcmap on Facebook Follow gcmap on Twitter

hCard Microformat

Geo Microformat